Time;durP1;ratioP1;P1;durP2;ratioP2;P2;SDS_P1;SDS_P2;PMS_P1;PMS_P2;Temp;Humidity;BMP_temperature;BMP_pressure;BME280_temperature;BME280_humidity;BME280_pressure;Samples;Min_cycle;Max_cycle;Signal;HPM_P1;HPM_P2
2022/01/09 00:01:35;;;;;;;41.33;19.73;;;-4.20;63.90;;;;;;5052769;28;20049;-68
2022/01/09 00:04:01;;;;;;;46.92;21.30;;;-4.30;63.80;;;;;;5068527;28;20036;-68
2022/01/09 00:06:27;;;;;;;;;;;-4.30;64.10;;;;;;5067968;28;20579;-67
2022/01/09 00:08:54;;;;;;;39.22;19.33;;;-4.40;64.10;;;;;;5057392;28;19923;-67
2022/01/09 00:11:27;;;;;;;44.97;19.58;;;-4.40;64.20;;;;;;5052243;28;20056;-67
2022/01/09 00:14:02;;;;;;;45.88;20.52;;;-4.50;63.50;;;;;;5037120;28;20040;-68
2022/01/09 00:16:39;;;;;;;39.72;19.42;;;-4.50;64.30;;;;;;5049822;28;20131;-67
2022/01/09 00:19:06;;;;;;;42.75;20.45;;;-4.50;64.30;;;;;;5043499;28;20465;-67
2022/01/09 00:21:32;;;;;;;41.47;19.10;;;-4.50;64.30;;;;;;5067568;28;20062;-68
2022/01/09 00:23:58;;;;;;;;;;;-4.50;64.20;;;;;;5067214;28;20046;-67
2022/01/09 00:26:24;;;;;;;41.42;20.10;;;-4.50;64.30;;;;;;5068113;28;19920;-68
2022/01/09 00:29:07;;;;;;;;;;;-4.60;64.10;;;;;;5068807;28;20028;-67
2022/01/09 00:31:33;;;;;;;43.70;20.27;;;-4.60;64.10;;;;;;5067729;28;19920;-67
2022/01/09 00:34:00;;;;;;;;;;;-4.60;64.00;;;;;;5068911;28;20123;-69
2022/01/09 00:36:27;;;;;;;;;;;-4.60;63.90;;;;;;5069910;28;19983;-67
2022/01/09 00:39:00;;;;;;;53.53;23.48;;;-4.70;63.80;;;;;;5068160;28;19994;-67
2022/01/09 00:42:06;;;;;;;57.58;26.15;;;-4.60;63.80;;;;;;5068711;28;20127;-68
2022/01/09 00:44:56;;;;;;;59.83;26.02;;;-4.60;63.80;;;;;;5057054;28;20155;-68
2022/01/09 00:47:22;;;;;;;61.75;27.50;;;-4.60;63.80;;;;;;5064317;28;20044;-67
2022/01/09 00:49:48;;;;;;;;;;;-4.60;63.90;;;;;;5070010;28;20388;-68
2022/01/09 00:52:18;;;;;;;77.80;28.90;;;-4.70;63.90;;;;;;4990274;28;19925;-67
2022/01/09 00:55:13;;;;;;;63.97;27.08;;;-4.70;64.00;;;;;;5007534;28;20072;-68
2022/01/09 00:57:43;;;;;;;56.83;25.30;;;-4.70;63.90;;;;;;4992072;28;20066;-68
2022/01/09 01:00:16;;;;;;;59.03;27.38;;;-4.70;63.90;;;;;;4973752;28;20049;-68
2022/01/09 01:02:44;;;;;;;65.82;32.90;;;-4.70;63.80;;;;;;4992092;28;20518;-67
2022/01/09 01:05:30;;;;;;;79.25;35.92;;;-4.80;63.30;;;;;;4992558;28;20200;-67
2022/01/09 01:07:59;;;;;;;83.55;36.72;;;-4.80;63.80;;;;;;4990615;28;20049;-68
2022/01/09 01:10:53;;;;;;;80.55;36.85;;;-4.80;63.90;;;;;;4993386;28;20093;-66
2022/01/09 01:13:22;;;;;;;121.45;48.55;;;-4.80;63.90;;;;;;4986156;28;20046;-67
2022/01/09 01:15:51;;;;;;;126.75;50.47;;;-4.80;64.00;;;;;;4983251;28;20037;-69
2022/01/09 01:18:23;;;;;;;167.52;61.58;;;-4.90;64.00;;;;;;5020780;28;20054;-67
2022/01/09 01:20:52;;;;;;;290.30;88.25;;;-4.80;63.90;;;;;;5009721;28;20062;-68
2022/01/09 01:23:21;;;;;;;232.25;75.13;;;-4.80;63.90;;;;;;5006112;28;20063;-67
2022/01/09 01:25:52;;;;;;;214.27;72.78;;;-4.80;63.90;;;;;;5060514;28;20421;-68
2022/01/09 01:28:19;;;;;;;139.55;52.92;;;-4.80;64.10;;;;;;5088874;28;20086;-67
2022/01/09 01:30:51;;;;;;;171.48;56.53;;;-4.90;63.90;;;;;;5050787;28;20037;-67
2022/01/09 01:33:35;;;;;;;140.23;56.45;;;-4.80;64.10;;;;;;5081846;28;20036;-67
2022/01/09 01:36:10;;;;;;;140.18;53.50;;;-4.90;64.10;;;;;;5054458;28;20059;-67
2022/01/09 01:38:38;;;;;;;107.22;43.08;;;-4.90;64.20;;;;;;5075430;28;20071;-67
2022/01/09 01:41:06;;;;;;;77.13;37.08;;;-4.90;64.20;;;;;;5071106;28;20232;-67
2022/01/09 01:43:38;;;;;;;81.28;35.38;;;-4.90;64.20;;;;;;5092979;28;20345;-67
2022/01/09 01:46:06;;;;;;;59.83;30.25;;;-4.90;64.20;;;;;;5064530;28;20043;-67
2022/01/09 01:48:40;;;;;;;76.82;34.03;;;-4.90;64.20;;;;;;5057238;28;20043;-67
2022/01/09 01:51:08;;;;;;;85.25;34.85;;;-4.90;64.30;;;;;;5056998;28;20039;-67
2022/01/09 01:53:39;;;;;;;85.40;36.15;;;-4.90;64.40;;;;;;5076706;28;20044;-68
2022/01/09 01:56:06;;;;;;;80.72;34.38;;;-4.90;64.50;;;;;;5074125;28;20057;-67
2022/01/09 01:58:38;;;;;;;82.68;34.78;;;-4.90;64.60;;;;;;5074720;28;20056;-68
2022/01/09 02:01:05;;;;;;;83.88;36.78;;;-4.90;64.70;;;;;;5085681;28;20044;-68
2022/01/09 02:03:52;;;;;;;83.13;34.97;;;-5.00;64.60;;;;;;5071298;28;20067;-68
2022/01/09 02:06:29;;;;;;;82.55;33.88;;;-5.00;64.70;;;;;;5055458;28;20114;-68
2022/01/09 02:08:58;;;;;;;77.03;33.45;;;-5.00;64.70;;;;;;5070479;28;20401;-68
2022/01/09 02:11:45;;;;;;;77.95;34.50;;;-5.00;64.10;;;;;;5072724;28;20493;-68
2022/01/09 02:14:12;;;;;;;77.80;33.67;;;-5.00;64.90;;;;;;5071064;28;20097;-67
2022/01/09 02:16:58;;;;;;;75.30;34.92;;;-5.00;64.60;;;;;;5072518;28;20404;-68
2022/01/09 02:19:35;;;;;;;86.45;40.28;;;-5.00;64.70;;;;;;5067701;28;20110;-68
2022/01/09 02:22:30;;;;;;;89.43;41.38;;;-5.10;64.70;;;;;;5063001;28;20032;-68
2022/01/09 02:25:09;;;;;;;92.38;38.92;;;-5.00;64.70;;;;;;5066644;28;20047;-67
2022/01/09 02:27:43;;;;;;;87.53;37.05;;;-5.00;64.70;;;;;;5085703;28;20056;-68
2022/01/09 02:30:16;;;;;;;101.53;40.83;;;-5.00;64.60;;;;;;5054909;28;20041;-67
2022/01/09 02:32:42;;;;;;;87.95;40.95;;;-5.00;63.90;;;;;;5066695;28;20037;-68
2022/01/09 02:35:12;;;;;;;;;;;-5.10;64.60;;;;;;5072636;28;20050;-67
2022/01/09 02:38:15;;;;;;;104.45;41.92;;;-5.00;64.60;;;;;;5054701;28;19925;-67
2022/01/09 02:40:51;;;;;;;108.18;42.15;;;-5.10;64.40;;;;;;5057601;28;20072;-67
2022/01/09 02:43:21;;;;;;;108.00;42.63;;;-5.10;64.50;;;;;;5070663;28;20044;-68
2022/01/09 02:46:22;;;;;;;82.72;36.38;;;-5.10;64.60;;;;;;5065893;28;20037;-67
2022/01/09 02:48:54;;;;;;;76.43;33.35;;;-5.10;64.40;;;;;;5063483;28;20037;-68
2022/01/09 02:51:21;;;;;;;65.45;29.85;;;-5.10;64.50;;;;;;5067345;28;20029;-67
2022/01/09 02:55:03;;;;;;;54.25;24.48;;;-5.10;64.70;;;;;;5064245;28;20056;-67
2022/01/09 02:56:52;;;;;;;57.10;25.15;;;-5.20;64.60;;;;;;5070041;28;20064;-68
2022/01/09 02:59:18;;;;;;;53.30;24.13;;;-5.30;64.40;;;;;;5071459;28;20102;-68
2022/01/09 03:01:51;;;;;;;60.10;25.98;;;-5.30;64.60;;;;;;5071139;28;20051;-68
2022/01/09 03:04:26;;;;;;;55.35;25.83;;;-5.30;64.50;;;;;;5070330;28;20044;-68
2022/01/09 03:07:12;;;;;;;63.55;26.33;;;-5.40;64.50;;;;;;5069629;28;20037;-68
2022/01/09 03:09:43;;;;;;;58.22;25.77;;;-5.50;64.60;;;;;;5071737;28;20047;-67
2022/01/09 03:12:32;;;;;;;65.82;28.05;;;-5.50;64.40;;;;;;5070812;28;20037;-68
2022/01/09 03:15:08;;;;;;;60.50;26.67;;;-5.50;64.50;;;;;;5070049;28;20044;-67
2022/01/09 03:17:38;;;;;;;78.60;30.85;;;-5.40;64.10;;;;;;5053341;28;20032;-67
2022/01/09 03:20:19;;;;;;;159.88;62.47;;;-5.40;64.00;;;;;;5069524;28;20091;-68
2022/01/09 03:22:46;;;;;;;118.47;46.13;;;-5.40;64.00;;;;;;5066178;28;20040;-67
2022/01/09 03:25:12;;;;;;;86.00;36.88;;;-5.50;64.00;;;;;;5053148;28;20025;-67
2022/01/09 03:27:46;;;;;;;86.05;35.83;;;-5.40;64.00;;;;;;5040536;28;20044;-68
2022/01/09 03:30:23;;;;;;;75.97;31.50;;;-5.40;63.90;;;;;;5065709;28;20029;-68
2022/01/09 03:32:59;;;;;;;91.07;37.10;;;-5.40;64.00;;;;;;5095368;28;20048;-67
2022/01/09 03:35:35;;;;;;;95.78;37.97;;;-5.40;64.00;;;;;;5069736;28;20543;-67
2022/01/09 03:38:33;;;;;;;94.13;37.63;;;-5.40;64.20;;;;;;5087646;28;20396;-67
2022/01/09 03:41:15;;;;;;;89.85;37.75;;;-5.40;64.20;;;;;;5055971;28;20036;-67
2022/01/09 03:43:41;;;;;;;81.50;33.83;;;-5.40;64.20;;;;;;5090908;28;20164;-67
2022/01/09 03:46:13;;;;;;;79.32;34.28;;;-5.40;64.40;;;;;;5082244;28;20033;-68
2022/01/09 03:48:46;;;;;;;81.53;33.90;;;-5.40;64.40;;;;;;5070266;28;20906;-68
2022/01/09 03:51:17;;;;;;;132.35;52.25;;;-5.30;64.70;;;;;;5071031;28;20037;-68
2022/01/09 03:54:06;;;;;;;122.72;48.83;;;-5.30;64.60;;;;;;5068913;28;20040;-67
2022/01/09 03:56:33;;;;;;;83.03;35.70;;;-5.30;64.50;;;;;;5068662;28;20598;-68
2022/01/09 03:59:00;;;;;;;70.90;31.77;;;-5.30;64.40;;;;;;5068994;28;20040;-67
2022/01/09 04:01:29;;;;;;;81.70;32.97;;;-5.20;64.40;;;;;;5065737;28;20461;-68
2022/01/09 04:03:56;;;;;;;77.05;31.40;;;-5.20;64.40;;;;;;5052959;28;20037;-68
2022/01/09 04:06:24;;;;;;;67.60;29.13;;;-5.20;64.50;;;;;;5057179;28;20119;-68
2022/01/09 04:08:56;;;;;;;70.28;28.70;;;-5.20;64.50;;;;;;5070718;28;20029;-67
2022/01/09 04:11:35;;;;;;;60.55;26.58;;;-5.10;64.60;;;;;;5071849;28;20040;-66
2022/01/09 04:14:12;;;;;;;61.72;27.98;;;-5.10;64.60;;;;;;5072186;28;20033;-66
2022/01/09 04:16:49;;;;;;;61.78;26.75;;;-5.10;64.60;;;;;;5057065;28;20082;-67
2022/01/09 04:19:38;;;;;;;67.63;27.83;;;-5.00;64.60;;;;;;5039525;28;20047;-68
2022/01/09 04:22:07;;;;;;;59.53;26.33;;;-5.00;64.60;;;;;;5033099;28;20401;-67
2022/01/09 04:24:36;;;;;;;65.35;27.83;;;-5.00;64.50;;;;;;5016218;28;20433;-67
2022/01/09 04:27:02;;;;;;;69.00;31.38;;;-4.90;64.60;;;;;;5032034;28;20486;-68
2022/01/09 04:29:29;;;;;;;69.78;32.13;;;-4.90;64.10;;;;;;5031966;28;20456;-67
2022/01/09 04:31:58;;;;;;;82.93;33.28;;;-5.00;64.60;;;;;;5031992;28;20052;-68
2022/01/09 04:34:33;;;;;;;78.13;30.52;;;-5.00;64.70;;;;;;5032003;28;20037;-67
2022/01/09 04:37:01;;;;;;;64.78;28.60;;;-5.00;64.70;;;;;;5031632;28;20041;-67
2022/01/09 04:39:40;;;;;;;62.22;27.83;;;-4.90;64.90;;;;;;5031914;28;20041;-68
2022/01/09 04:42:13;;;;;;;60.15;30.27;;;-4.90;64.80;;;;;;5031892;28;20036;-67
2022/01/09 04:44:54;;;;;;;64.72;30.17;;;-4.90;64.70;;;;;;5033128;28;20041;-68
2022/01/09 04:47:21;;;;;;;76.68;31.13;;;-4.90;64.70;;;;;;5031470;28;20051;-68
2022/01/09 04:49:50;;;;;;;70.03;29.50;;;-4.90;64.50;;;;;;5031612;28;20394;-66
2022/01/09 04:52:20;;;;;;;69.68;30.30;;;-4.80;64.60;;;;;;5032024;28;20051;-67
2022/01/09 04:54:52;;;;;;;70.50;29.75;;;-4.80;64.50;;;;;;5032998;28;20068;-67
2022/01/09 04:57:34;;;;;;;72.00;30.95;;;-4.80;64.20;;;;;;5048201;28;20055;-68
2022/01/09 05:00:01;;;;;;;67.13;27.52;;;-4.70;64.20;;;;;;5031503;28;20091;-67
2022/01/09 05:02:27;;;;;;;56.97;25.27;;;-4.70;63.60;;;;;;5032725;28;20501;-68
2022/01/09 05:05:00;;;;;;;69.65;30.60;;;-4.60;63.50;;;;;;5031471;28;20041;-67
2022/01/09 05:07:29;;;;;;;74.18;30.80;;;-4.60;63.90;;;;;;5031934;28;20093;-68
2022/01/09 05:09:58;;;;;;;69.50;30.02;;;-4.50;64.00;;;;;;5031340;28;20159;-68
2022/01/09 05:12:33;;;;;;;67.97;28.08;;;-4.50;63.80;;;;;;5032336;28;20033;-68
2022/01/09 05:15:06;;;;;;;68.03;28.63;;;-4.40;63.60;;;;;;5031309;28;20121;-68
2022/01/09 05:17:37;;;;;;;72.82;31.58;;;-4.40;63.60;;;;;;5032546;28;20025;-68
2022/01/09 05:20:16;;;;;;;70.60;31.17;;;-4.30;63.70;;;;;;5054112;28;20053;-66
2022/01/09 05:22:46;;;;;;;59.38;27.40;;;-4.30;63.50;;;;;;5071243;28;20060;-68
2022/01/09 05:25:12;;;;;;;58.72;25.40;;;-4.30;63.60;;;;;;5071250;28;20048;-67
2022/01/09 05:27:38;;;;;;;54.30;23.10;;;-4.20;63.80;;;;;;5071135;28;20481;-67
2022/01/09 05:30:18;;;;;;;66.00;26.63;;;-4.20;63.70;;;;;;5072556;28;20045;-67
2022/01/09 05:32:46;;;;;;;66.93;25.65;;;-4.10;63.80;;;;;;5055679;28;20048;-67
2022/01/09 05:36:04;;;;;;;60.38;26.42;;;-4.10;63.90;;;;;;5071112;28;20040;-67
2022/01/09 05:38:13;;;;;;;59.90;26.75;;;-4.10;63.90;;;;;;5071686;28;20053;-67
2022/01/09 05:40:51;;;;;;;58.17;26.33;;;-4.10;64.00;;;;;;5072136;28;20045;-68
2022/01/09 05:43:19;;;;;;;62.78;26.40;;;-4.10;63.90;;;;;;5071129;28;20044;-68
2022/01/09 05:45:53;;;;;;;55.33;25.80;;;-4.10;64.00;;;;;;5070914;28;20428;-68
2022/01/09 05:48:22;;;;;;;59.53;23.17;;;-4.10;64.10;;;;;;5072232;28;20063;-67
2022/01/09 05:50:54;;;;;;;53.03;20.48;;;-4.10;64.10;;;;;;5053453;28;20040;-68
2022/01/09 05:53:26;;;;;;;46.30;21.85;;;-4.00;64.20;;;;;;5055382;28;20053;-67
2022/01/09 05:55:59;;;;;;;58.70;26.27;;;-4.00;64.00;;;;;;5070911;28;20550;-67
2022/01/09 05:58:51;;;;;;;57.20;26.83;;;-4.00;64.10;;;;;;5087425;28;20029;-68
2022/01/09 06:01:20;;;;;;;54.38;24.33;;;-4.00;64.30;;;;;;5052681;28;20562;-67
2022/01/09 06:03:46;;;;;;;54.35;25.83;;;-4.00;64.20;;;;;;5069591;28;20040;-67
2022/01/09 06:06:15;;;;;;;59.30;25.88;;;-4.00;64.30;;;;;;5068595;28;20110;-67
2022/01/09 06:08:43;;;;;;;65.03;26.83;;;-4.00;64.10;;;;;;5069552;28;20048;-67
2022/01/09 06:11:09;;;;;;;52.35;23.77;;;-4.00;64.30;;;;;;5052575;28;20135;-68
2022/01/09 06:13:40;;;;;;;51.92;21.88;;;-3.90;64.40;;;;;;5012943;28;20045;-68
2022/01/09 06:16:35;;;;;;;69.88;29.23;;;-3.90;64.40;;;;;;5029488;28;20045;-67
2022/01/09 06:19:10;;;;;;;64.35;27.58;;;-3.90;64.50;;;;;;5012847;28;20072;-67
2022/01/09 06:22:03;;;;;;;71.65;28.85;;;-3.90;64.30;;;;;;4993261;28;20058;-68
2022/01/09 06:24:29;;;;;;;67.68;28.15;;;-3.90;64.30;;;;;;4993166;28;20248;-68
2022/01/09 06:26:55;;;;;;;62.60;27.90;;;-4.00;64.50;;;;;;5009912;28;20499;-68
2022/01/09 06:29:30;;;;;;;64.95;26.92;;;-3.90;64.70;;;;;;5013287;28;20476;-67
2022/01/09 06:32:03;;;;;;;51.75;23.88;;;-4.00;64.60;;;;;;5013225;28;20048;-67
2022/01/09 06:34:29;;;;;;;57.33;26.83;;;-4.00;64.70;;;;;;5012838;28;20096;-67
2022/01/09 06:37:03;;;;;;;85.50;36.72;;;-4.00;64.60;;;;;;5019956;28;20508;-68
2022/01/09 06:39:42;;;;;;;68.25;33.47;;;-4.00;64.50;;;;;;5036926;28;20099;-67
2022/01/09 06:42:08;;;;;;;64.93;28.55;;;-3.90;64.60;;;;;;5052695;28;20041;-67
2022/01/09 06:44:41;;;;;;;59.00;28.63;;;-3.90;64.50;;;;;;5026468;28;20045;-68
2022/01/09 06:47:25;;;;;;;51.70;23.70;;;-3.90;64.60;;;;;;5054619;28;20037;-68
2022/01/09 06:49:52;;;;;;;59.65;23.77;;;-3.80;64.50;;;;;;5053827;28;20037;-67
2022/01/09 06:52:18;;;;;;;54.75;23.73;;;-3.80;64.20;;;;;;5062456;28;20040;-68
2022/01/09 06:54:44;;;;;;;;;;;-3.80;64.50;;;;;;5074033;28;20090;-68
2022/01/09 06:57:14;;;;;;;77.90;31.58;;;-3.90;64.50;;;;;;5073785;28;19916;-67
2022/01/09 06:59:43;;;;;;;52.80;25.35;;;-3.80;65.30;;;;;;5073668;28;20485;-67
2022/01/09 07:02:09;;;;;;;45.35;22.55;;;-3.80;64.30;;;;;;5074688;28;20044;-67
2022/01/09 07:04:45;;;;;;;57.30;22.45;;;-3.80;64.30;;;;;;5074983;28;20385;-67
2022/01/09 07:07:14;;;;;;;49.13;20.67;;;-3.80;64.30;;;;;;5072588;28;20032;-67
2022/01/09 07:09:40;;;;;;;43.65;19.50;;;-3.70;64.50;;;;;;5073356;28;20052;-67
2022/01/09 07:12:14;;;;;;;51.08;21.00;;;-3.60;64.30;;;;;;5090300;28;20037;-68
2022/01/09 07:14:40;;;;;;;43.08;20.77;;;-3.60;63.60;;;;;;5074821;28;20040;-67
2022/01/09 07:17:14;;;;;;;64.20;28.50;;;-3.50;64.30;;;;;;5089753;28;20070;-67
2022/01/09 07:19:42;;;;;;;47.58;23.67;;;-3.50;63.60;;;;;;5090177;28;20074;-68
2022/01/09 07:22:37;;;;;;;60.35;24.88;;;-3.40;64.00;;;;;;5072145;28;20139;-67
2022/01/09 07:25:14;;;;;;;51.17;25.90;;;-3.30;64.00;;;;;;5074690;28;20489;-67
2022/01/09 07:27:39;;;;;;;;;;;-3.30;63.20;;;;;;5074822;28;20078;-67
2022/01/09 07:30:08;;;;;;;40.65;19.05;;;-3.20;63.90;;;;;;5074275;28;20326;-67
2022/01/09 07:32:40;;;;;;;50.60;22.75;;;-3.30;63.70;;;;;;5073053;28;20632;-68
2022/01/09 07:35:13;;;;;;;60.47;24.70;;;-3.20;64.00;;;;;;5074476;28;20070;-67
2022/01/09 07:37:46;;;;;;;95.00;37.65;;;-3.20;63.90;;;;;;5072030;28;20040;-66
2022/01/09 07:40:20;;;;;;;56.58;23.48;;;-3.20;64.00;;;;;;5056994;28;20036;-67
2022/01/09 07:42:55;;;;;;;47.83;23.77;;;-3.20;64.00;;;;;;5072657;28;20108;-67
2022/01/09 07:45:39;;;;;;;50.92;24.08;;;-3.20;64.00;;;;;;5074291;28;20063;-68
2022/01/09 07:48:23;;;;;;;44.30;22.77;;;-3.10;64.10;;;;;;5074375;28;20032;-67
2022/01/09 07:51:06;;;;;;;41.53;18.75;;;-3.00;64.10;;;;;;5073048;28;20127;-68
2022/01/09 07:53:33;;;;;;;44.90;21.40;;;-2.90;63.90;;;;;;5072849;28;20071;-67
2022/01/09 07:56:14;;;;;;;96.78;38.38;;;-2.90;63.30;;;;;;5072421;28;20097;-68
2022/01/09 07:58:46;;;;;;;95.32;35.50;;;-2.80;63.80;;;;;;5072726;28;20021;-67
2022/01/09 08:01:28;;;;;;;72.50;32.63;;;-2.70;63.70;;;;;;5072322;28;20083;-67
2022/01/09 08:03:56;;;;;;;461.55;155.38;;;-2.60;63.50;;;;;;5072026;28;20037;-67
2022/01/09 08:06:34;;;;;;;218.52;80.78;;;-2.60;63.50;;;;;;5073625;28;20040;-67
2022/01/09 08:09:07;;;;;;;44.97;20.90;;;-2.60;63.50;;;;;;5072761;28;20039;-69
2022/01/09 08:11:33;;;;;;;48.80;23.08;;;-2.60;63.50;;;;;;5072184;28;20033;-68
2022/01/09 08:13:59;;;;;;;;;;;-2.40;63.40;;;;;;5073951;28;20025;-67
2022/01/09 08:16:38;;;;;;;42.55;19.23;;;-2.30;63.20;;;;;;5073215;28;20011;-68
2022/01/09 08:19:04;;;;;;;43.35;20.15;;;-2.10;62.90;;;;;;5072024;28;20039;-67
2022/01/09 08:21:31;;;;;;;53.70;25.17;;;-2.00;62.60;;;;;;5071659;28;20106;-68
2022/01/09 08:24:00;;;;;;;213.23;75.15;;;-2.00;62.60;;;;;;5071180;28;20060;-67
2022/01/09 08:26:26;;;;;;;46.42;22.00;;;-1.80;62.30;;;;;;5073234;28;20051;-67
2022/01/09 08:28:54;;;;;;;53.53;22.15;;;-1.70;62.40;;;;;;5055056;28;20028;-68
2022/01/09 08:31:34;;;;;;;44.60;20.67;;;-1.60;62.50;;;;;;5071846;28;20040;-67
2022/01/09 08:34:07;;;;;;;59.00;29.20;;;-1.50;62.20;;;;;;5072734;28;20052;-68
2022/01/09 08:36:37;;;;;;;55.63;24.25;;;-1.30;62.00;;;;;;5070866;28;20048;-68
2022/01/09 08:39:05;;;;;;;40.95;19.65;;;-1.20;61.70;;;;;;5068740;28;20045;-68
2022/01/09 08:41:36;;;;;;;48.50;23.30;;;-1.20;61.50;;;;;;5054737;28;20039;-69
2022/01/09 08:44:04;;;;;;;56.47;22.50;;;-1.10;61.40;;;;;;5072875;28;20039;-68
2022/01/09 08:46:54;;;;;;;50.83;23.98;;;-1.00;61.20;;;;;;5071659;28;20024;-67
2022/01/09 08:49:27;;;;;;;51.65;24.40;;;-1.00;61.40;;;;;;5071736;28;20048;-67
2022/01/09 08:51:55;;;;;;;53.53;23.05;;;-1.00;61.40;;;;;;5071071;28;20036;-68
2022/01/09 08:54:22;;;;;;;47.60;20.48;;;-0.90;61.80;;;;;;5071958;28;20052;-67
2022/01/09 08:56:54;;;;;;;36.05;17.90;;;-0.90;61.70;;;;;;5072674;28;20029;-67
2022/01/09 08:59:30;;;;;;;38.08;18.20;;;-0.90;61.10;;;;;;5072766;28;20037;-68
2022/01/09 09:02:01;;;;;;;38.00;17.60;;;-0.90;61.70;;;;;;5072931;28;20111;-69
2022/01/09 09:04:27;;;;;;;36.33;16.95;;;-0.80;61.70;;;;;;5071270;28;20389;-67
2022/01/09 09:06:56;;;;;;;47.05;18.30;;;-0.90;61.90;;;;;;5072699;28;20396;-68
2022/01/09 09:09:28;;;;;;;38.67;18.50;;;-0.90;62.10;;;;;;5071682;28;20102;-67
2022/01/09 09:12:01;;;;;;;39.67;18.17;;;-0.90;62.10;;;;;;5072587;28;20550;-69
2022/01/09 09:14:27;;;;;;;38.42;18.48;;;-1.00;62.20;;;;;;5087984;28;20035;-68
2022/01/09 09:16:53;;;;;;;39.17;18.17;;;-1.00;62.40;;;;;;5072392;28;20029;-67
2022/01/09 09:19:19;;;;;;;38.33;17.95;;;-1.10;62.60;;;;;;5071105;28;20046;-67
2022/01/09 09:21:47;;;;;;;38.55;17.63;;;-1.00;62.80;;;;;;5070734;28;20447;-68
2022/01/09 09:24:14;;;;;;;56.55;19.73;;;-1.00;62.80;;;;;;5071524;28;20507;-68
2022/01/09 09:26:49;;;;;;;38.05;18.02;;;-0.90;62.80;;;;;;5072270;28;20488;-69
2022/01/09 09:29:18;;;;;;;43.67;18.48;;;-0.90;62.40;;;;;;5072359;28;20044;-68
2022/01/09 09:31:51;;;;;;;44.60;19.10;;;-0.80;62.50;;;;;;5071793;28;20041;-67
2022/01/09 09:34:21;;;;;;;43.30;18.55;;;-0.70;62.20;;;;;;5072469;28;20478;-67
2022/01/09 09:36:48;;;;;;;42.50;19.00;;;-0.60;62.20;;;;;;5072281;28;20040;-68
2022/01/09 09:39:24;;;;;;;38.65;17.80;;;-0.60;62.20;;;;;;5071422;28;20037;-69
2022/01/09 09:41:51;;;;;;;43.33;19.43;;;-0.60;62.00;;;;;;5070996;28;20048;-68
2022/01/09 09:44:25;;;;;;;41.50;16.48;;;-0.50;61.50;;;;;;5070790;28;20033;-68
2022/01/09 09:46:56;;;;;;;52.05;22.05;;;-0.50;62.20;;;;;;5072289;28;20043;-68
2022/01/09 09:49:25;;;;;;;43.47;22.77;;;-0.30;62.30;;;;;;5071008;28;20068;-68
2022/01/09 09:52:00;;;;;;;44.13;20.48;;;-0.20;61.70;;;;;;5072176;28;20113;-69
2022/01/09 09:54:30;;;;;;;44.70;20.50;;;-0.20;61.90;;;;;;5070119;28;20044;-67
2022/01/09 09:56:57;;;;;;;44.42;21.60;;;-0.10;61.90;;;;;;5070886;28;20094;-68
2022/01/09 09:59:44;;;;;;;52.08;22.83;;;0.00;61.80;;;;;;5070917;28;20150;-68
2022/01/09 10:02:48;;;;;;;40.22;19.30;;;0.00;61.80;;;;;;5054535;28;20033;-67
2022/01/09 10:05:19;;;;;;;53.50;23.30;;;0.10;61.90;;;;;;5076216;28;20420;-69
2022/01/09 10:07:54;;;;;;;54.63;23.55;;;0.20;61.70;;;;;;5091679;28;20036;-68
2022/01/09 10:10:45;;;;;;;44.92;25.20;;;0.20;61.60;;;;;;5091446;28;20086;-67
2022/01/09 10:13:22;;;;;;;61.83;28.63;;;0.30;61.30;;;;;;5072662;28;20052;-67
2022/01/09 10:16:14;;;;;;;59.83;27.42;;;0.50;61.90;;;;;;5075269;28;20456;-68
2022/01/09 10:19:21;;;;;;;56.20;27.52;;;0.50;61.70;;;;;;5074469;28;20082;-67
2022/01/09 10:22:44;;;;;;;61.75;28.35;;;0.70;61.50;;;;;;5074708;28;20048;-67
2022/01/09 10:25:47;;;;;;;73.22;33.63;;;0.70;61.40;;;;;;5075936;28;20036;-69
2022/01/09 10:28:17;;;;;;;50.97;27.40;;;0.70;61.60;;;;;;5069087;28;20224;-67
2022/01/09 10:31:05;;;;;;;66.22;28.05;;;0.70;61.60;;;;;;5075553;28;20044;-68
2022/01/09 10:33:37;;;;;;;82.00;35.97;;;0.50;61.80;;;;;;5075349;28;20036;-68
2022/01/09 10:36:51;;;;;;;68.15;33.75;;;0.50;62.20;;;;;;5075742;28;20072;-69
2022/01/09 10:39:36;;;;;;;66.20;32.80;;;0.60;62.00;;;;;;5073978;28;20139;-67
2022/01/09 10:42:25;;;;;;;54.38;23.35;;;0.70;62.00;;;;;;5074767;28;20040;-67
2022/01/09 10:44:51;;;;;;;73.97;32.70;;;0.70;61.90;;;;;;5058522;28;20404;-67
2022/01/09 10:47:37;;;;;;;125.38;49.38;;;0.70;62.00;;;;;;5054257;28;20017;-69
2022/01/09 10:50:03;;;;;;;102.05;42.80;;;0.80;61.90;;;;;;5064772;28;20036;-67
2022/01/09 10:52:41;;;;;;;48.30;23.95;;;0.90;61.30;;;;;;5074928;28;20029;-69
2022/01/09 10:55:09;;;;;;;38.50;21.02;;;0.90;61.90;;;;;;5074244;28;20052;-69
2022/01/09 10:57:40;;;;;;;45.92;21.70;;;1.10;61.10;;;;;;5072321;28;20025;-69
2022/01/09 11:00:25;;;;;;;46.70;20.05;;;1.30;61.70;;;;;;5073533;28;20074;-67
2022/01/09 11:03:01;;;;;;;77.43;34.58;;;1.50;61.30;;;;;;5074781;28;20033;-69
2022/01/09 11:05:29;;;;;;;47.42;21.83;;;1.60;60.80;;;;;;5073844;28;20040;-68
2022/01/09 11:08:02;;;;;;;59.45;25.50;;;1.70;60.70;;;;;;5066366;28;20094;-67
2022/01/09 11:10:29;;;;;;;51.78;26.60;;;1.80;60.30;;;;;;5066029;28;20044;-68
2022/01/09 11:12:59;;;;;;;61.47;28.50;;;2.00;60.10;;;;;;5056204;28;20028;-68
2022/01/09 11:16:33;;;;;;;66.45;29.15;;;2.00;60.10;;;;;;5048793;28;20036;-69
2022/01/09 11:18:32;;;;;;;66.95;30.00;;;2.20;59.90;;;;;;5059129;28;20501;-69
2022/01/09 11:21:04;;;;;;;49.83;23.08;;;2.40;59.70;;;;;;5061992;28;20087;-67
2022/01/09 11:23:59;;;;;;;59.70;29.45;;;2.60;59.70;;;;;;5066984;28;20041;-69
2022/01/09 11:27:09;;;;;;;59.53;27.42;;;2.70;59.30;;;;;;5057080;28;20038;-68
2022/01/09 11:30:20;;;;;;;59.67;26.58;;;2.80;59.10;;;;;;5058103;28;20203;-69
2022/01/09 11:33:51;;;;;;;41.38;19.98;;;2.90;59.10;;;;;;5070247;28;20063;-69
2022/01/09 11:37:16;;;;;;;58.38;27.40;;;2.90;59.30;;;;;;5070860;28;20049;-68
2022/01/09 11:40:23;;;;;;;104.13;38.42;;;2.80;59.20;;;;;;5070322;28;20036;-68
2022/01/09 11:43:44;;;;;;;46.47;20.95;;;2.60;59.30;;;;;;5070672;28;20040;-68
2022/01/09 11:46:11;;;;;;;84.38;37.90;;;2.60;59.20;;;;;;5054333;28;20048;-68
2022/01/09 11:48:57;;;;;;;61.92;26.65;;;2.60;59.40;;;;;;5069173;28;20037;-69
2022/01/09 11:51:48;;;;;;;33.78;17.85;;;2.60;59.40;;;;;;5070027;28;20032;-68
2022/01/09 11:54:17;;;;;;;38.65;16.52;;;2.60;59.30;;;;;;5067146;28;20187;-68
2022/01/09 11:59:53;;;;;;;31.67;15.15;;;2.50;59.50;;;;;;5070484;28;20447;-70
2022/01/09 12:02:27;;;;;;;40.22;18.67;;;2.60;59.20;;;;;;5048647;28;20033;-69
2022/01/09 12:05:07;;;;;;;31.80;16.00;;;2.70;59.20;;;;;;5067284;28;20500;-68
2022/01/09 12:07:55;;;;;;;35.08;16.55;;;2.80;59.10;;;;;;5049738;28;20045;-69
2022/01/09 12:11:03;;;;;;;29.55;15.23;;;2.80;58.90;;;;;;5053831;28;20385;-69
2022/01/09 12:13:48;;;;;;;;;;;2.80;58.90;;;;;;5069298;28;20094;-69
2022/01/09 12:16:48;;;;;;;33.33;13.35;;;2.90;58.80;;;;;;5068785;28;19928;-68
2022/01/09 12:20:03;;;;;;;34.58;16.85;;;3.10;58.70;;;;;;5065763;28;20060;-69
2022/01/09 12:23:02;;;;;;;31.63;15.02;;;3.00;58.50;;;;;;5064753;28;20110;-68
2022/01/09 12:25:50;;;;;;;30.55;14.23;;;3.00;58.40;;;;;;5067182;28;20113;-68
2022/01/09 12:28:38;;;;;;;30.77;13.82;;;2.90;58.70;;;;;;5064614;28;20048;-68
2022/01/09 12:31:28;;;;;;;31.52;14.82;;;2.90;58.60;;;;;;5070137;28;20430;-68
2022/01/09 12:34:13;;;;;;;27.77;15.27;;;3.00;58.60;;;;;;5030252;28;20082;-69
2022/01/09 12:36:41;;;;;;;30.40;14.23;;;3.10;58.30;;;;;;5040411;28;20036;-69
2022/01/09 12:39:08;;;;;;;31.83;15.35;;;3.20;58.30;;;;;;5067531;28;20025;-68
2022/01/09 12:41:53;;;;;;;35.58;15.23;;;3.20;58.30;;;;;;5051999;28;20101;-69
2022/01/09 12:44:22;;;;;;;34.53;17.02;;;3.20;58.00;;;;;;5050422;28;20064;-70
2022/01/09 12:47:05;;;;;;;26.77;12.43;;;3.40;58.10;;;;;;5068641;28;20115;-69
2022/01/09 12:49:39;;;;;;;28.38;13.27;;;3.50;57.60;;;;;;5058521;28;20040;-68
2022/01/09 12:52:08;;;;;;;26.05;12.00;;;3.70;57.30;;;;;;5049577;28;20041;-68
2022/01/09 12:54:42;;;;;;;30.98;13.75;;;3.90;57.00;;;;;;5046630;28;20044;-68
2022/01/09 12:57:11;;;;;;;52.30;23.88;;;4.20;56.60;;;;;;5047735;28;20040;-68
2022/01/09 12:59:55;;;;;;;27.35;13.10;;;4.40;56.20;;;;;;5048308;28;20511;-68
2022/01/09 13:03:01;;;;;;;31.25;12.88;;;4.80;55.50;;;;;;5068008;28;20745;-69
2022/01/09 13:05:35;;;;;;;27.73;11.00;;;5.30;54.80;;;;;;5056891;28;20041;-69
2022/01/09 13:08:34;;;;;;;25.45;11.68;;;5.80;53.40;;;;;;5044782;28;20040;-69
2022/01/09 13:11:12;;;;;;;34.85;14.85;;;6.30;52.60;;;;;;5063420;28;20375;-69
2022/01/09 13:13:40;;;;;;;26.65;13.73;;;6.90;51.30;;;;;;5043944;28;20442;-69
2022/01/09 13:16:37;;;;;;;22.52;11.55;;;7.20;50.70;;;;;;5069295;28;20028;-68
2022/01/09 13:19:23;;;;;;;22.98;11.48;;;7.10;50.80;;;;;;5047961;28;20103;-69
2022/01/09 13:22:05;;;;;;;24.77;11.83;;;6.80;51.20;;;;;;5066124;28;20496;-70